ADDS METAR Data INFO
IDs: Format: Raw Decoded Include TAF

Data at: 1013 UTC 14 Dec 2017

K20V 140954Z AUTO 00000KT 4SM -SN SCT007 BKN024 OVC032 00/M01 A3012 RMK AO2
K20V 140930Z AUTO 00000KT 3SM -SN SCT010 BKN022 OVC030 00/M01 A3011 RMK AO2
K20V 140912Z AUTO 00000KT 5SM -SN SCT015 SCT019 OVC030 00/00 A3011 RMK AO2
K20V 140850Z AUTO 00000KT 4SM -SN BKN014 OVC020 00/00 A3011 RMK AO2
K20V 140832Z AUTO 00000KT 3SM -SN BKN014 BKN019 OVC026 01/00 A3011 RMK AO2
K20V 140814Z AUTO 00000KT 5SM -SN SCT014 BKN025 OVC035 00/M01 A3010 RMK AO2
K20V 140754Z AUTO 00000KT 2 1/2SM UP BKN014 BKN022 OVC039 01/00 A3010 RMK AO2
K20V 140730Z AUTO 00000KT 4SM -SN BKN014 OVC020 01/00 A3011 RMK AO2
K20V 140712Z AUTO 00000KT 3SM -SN BKN012 BKN020 OVC032 01/00 A3011 RMK AO2
K20V 140653Z AUTO 00000KT 10SM SCT015 BKN031 OVC039 01/M01 A3011 RMK AO2
K20V 140630Z AUTO 18004KT 3SM -SN OVC015 01/M01 A3012 RMK AO2
K20V 140612Z AUTO 00000KT 5SM -SN OVC015 01/M02 A3012 RMK AO2
K20V 140554Z AUTO 34003KT 4SM -SN BKN015 BKN020 OVC025 01/M02 A3012 RMK AO2
K20V 140530Z AUTO 35007KT 10SM SCT025 OVC031 01/M02 A3011 RMK AO2
K20V 140512Z AUTO 32008KT 10SM BKN034 BKN040 OVC048 02/M03 A3011 RMK AO2
K20V 140454Z AUTO 35007KT 10SM SCT035 BKN048 OVC055 01/M04 A3010 RMK AO2
K20V 140430Z AUTO 00000KT 10SM SCT033 BKN040 OVC046 01/M04 A3009 RMK AO2
K20V 140412Z AUTO 00000KT 10SM SCT036 BKN046 OVC060 01/M04 A3009 RMK AO2
K20V 140354Z AUTO 36004KT 10SM SCT060 BKN070 OVC090 01/M03 A3008 RMK AO2
K20V 140330Z AUTO 35003KT 10SM BKN090 OVC110 00/M03 A3008 RMK AO2
K20V 140312Z AUTO 00000KT 10SM OVC090 01/M06 A3009 RMK AO2
K20V 140253Z AUTO 19004KT 10SM OVC090 01/M04 A3009 RMK AO2
K20V 140230Z AUTO 00000KT 10SM SCT049 SCT070 OVC080 01/M03 A3009 RMK AO2
K20V 140212Z AUTO 00000KT 10SM SCT046 SCT070 OVC090 00/M03 A3010 RMK AO2
K20V 140154Z AUTO 00000KT 10SM SCT030 SCT039 OVC085 01/M03 A3009 RMK AO2
K20V 140130Z AUTO 00000KT 10SM SCT060 OVC085 01/M03 A3009 RMK AO2
K20V 140112Z AUTO 02003KT 10SM OVC085 01/M03 A3010 RMK AO2
K20V 140054Z AUTO 00000KT 10SM OVC080 01/M03 A3008 RMK AO2
K20V 140030Z AUTO 00000KT 10SM OVC080 01/M03 A3008 RMK AO2
K20V 140012Z AUTO 00000KT 10SM OVC080 01/M05 A3008 RMK AO2
K20V 132354Z AUTO 00000KT 10SM OVC080 01/M05 A3007 RMK AO2
K20V 132330Z AUTO 00000KT 10SM OVC080 01/M05 A3008 RMK AO2
K20V 132312Z AUTO 00000KT 10SM OVC080 01/M05 A3009 RMK AO2
K20V 132254Z AUTO 00000KT 10SM OVC080 02/M06 A3009 RMK AO2
K20V 132230Z AUTO 00000KT 10SM OVC080 02/M06 A3010 RMK AO2
K20V 132212Z AUTO 00000KT 10SM OVC080 02/M06 A3011 RMK AO2
K20V 132154Z AUTO 00000KT 10SM BKN080 02/M06 A3011 RMK AO2
K20V 132130Z AUTO 00000KT 10SM BKN080 01/M06 A3012 RMK AO2
K20V 132112Z AUTO 00000KT 10SM OVC080 01/M06 A3012 RMK AO2
K20V 132054Z AUTO 00000KT 10SM OVC090 01/M06 A3014 RMK AO2
K20V 132030Z AUTO 00000KT 10SM OVC090 01/M06 A3014 RMK AO2
K20V 132012Z AUTO 00000KT 10SM OVC090 00/M06 A3016 RMK AO2
K20V 131954Z AUTO 00000KT 10SM OVC090 00/M07 A3017 RMK AO2
K20V 131930Z AUTO 00000KT 10SM OVC090 M01/M07 A3019 RMK AO2
K20V 131912Z AUTO 00000KT 10SM OVC090 M01/M07 A3021 RMK AO2
K20V 131854Z AUTO 00000KT 10SM OVC090 M02/M07 A3022 RMK AO2
K20V 131830Z AUTO 00000KT 10SM OVC090 M03/M07 A3024 RMK AO2
K20V 131812Z AUTO 00000KT 10SM OVC090 M03/M08 A3026 RMK AO2
K20V 131753Z AUTO 00000KT 10SM OVC090 M05/M08 A3027 RMK AO2
K20V 131735Z AUTO 00000KT 10SM OVC090 M05/M08 A3028 RMK AO2
K20V 131712Z AUTO 00000KT 10SM OVC090 M06/M09 A3030 RMK AO2
K20V 131653Z AUTO 00000KT 10SM OVC090 M06/M10 A3030 RMK AO2
K20V 131635Z AUTO 00000KT 10SM OVC090 M07/M10 A3031 RMK AO2
K20V 131612Z AUTO 00000KT 10SM OVC100 M07/M10 A3031 RMK AO2
K20V 131554Z AUTO 00000KT 10SM OVC100 M08/M11 A3031 RMK AO2
K20V 131530Z AUTO 00000KT 10SM OVC100 M08/M11 A3031 RMK AO2
K20V 131512Z AUTO 00000KT 10SM OVC100 M08/M11 A3031 RMK AO2
K20V 131454Z AUTO 00000KT 10SM OVC100 M10/M12 A3031 RMK AO2
K20V 131430Z AUTO 00000KT 10SM BKN080 OVC100 M10/M12 A3032 RMK AO2
K20V 131412Z AUTO 00000KT 10SM BKN080 OVC100 M10/M12 A3032 RMK AO2
K20V 131354Z AUTO 24003KT 10SM OVC080 M10/M12 A3032 RMK AO2
K20V 131330Z AUTO 00000KT 10SM OVC090 M11/M13 A3031 RMK AO2
K20V 131312Z AUTO 00000KT 10SM OVC100 M12/M15 A3031 RMK AO2
K20V 131254Z AUTO 00000KT 10SM SCT001 OVC100 M13/M16 A3032 RMK AO2
K20V 131230Z AUTO 00000KT 10SM BKN001 OVC100 M15/M17 A3032 RMK AO2
K20V 131212Z AUTO 00000KT 10SM SCT001 BKN006 M15/M18 A3031 RMK AO2
K20V 131154Z AUTO 00000KT 10SM CLR M14/M17 A3031 RMK AO2
K20V 131130Z AUTO 00000KT 10SM CLR M14/M17 A3032 RMK AO2
K20V 131112Z AUTO 00000KT 10SM CLR M14/M16 A3032 RMK AO2
K20V 131054Z AUTO 00000KT 10SM CLR M13/M16 A3032 RMK AO2
K20V 131030Z AUTO 00000KT 10SM CLR M13/M16 A3032 RMK AO2
K20V 131012Z AUTO 00000KT 10SM CLR M13/M16 A3033 RMK AO2
K20V 130954Z AUTO 00000KT 10SM CLR M13/M16 A3032 RMK AO2
K20V 130930Z AUTO 00000KT 10SM CLR M12/M15 A3032 RMK AO2
K20V 130912Z AUTO 00000KT 10SM CLR M13/M16 A3033 RMK AO2
K20V 130850Z AUTO 24003KT 10SM CLR M12/M14 A3033 RMK AO2
K20V 130832Z AUTO 00000KT 10SM CLR M11/M14 A3033 RMK AO2
K20V 130814Z AUTO 00000KT 10SM CLR M13/M16 A3033 RMK AO2
K20V 130754Z AUTO 00000KT 10SM CLR M12/M15 A3035 RMK AO2
K20V 130730Z AUTO 00000KT 10SM CLR M12/M15 A3035 RMK AO2
K20V 130712Z AUTO 00000KT 10SM CLR M11/M13 A3036 RMK AO2
K20V 130652Z AUTO 00000KT 10SM CLR M12/M15 A3036 RMK AO2
K20V 130635Z AUTO 00000KT 10SM CLR M11/M13 A3037 RMK AO2
K20V 130611Z AUTO 12003KT 10SM CLR M12/M15 A3037 RMK AO2
K20V 130551Z AUTO 00000KT 10SM CLR M11/M13 A3037 RMK AO2
K20V 130534Z AUTO 00000KT 10SM CLR M11/M13 A3037 RMK AO2
K20V 130512Z AUTO 00000KT 10SM CLR M11/M14 A3037 RMK AO2
K20V 130454Z AUTO 00000KT 10SM CLR M11/M13 A3038 RMK AO2
K20V 130430Z AUTO 00000KT 10SM CLR M10/M12 A3038 RMK AO2
K20V 130412Z AUTO 00000KT 10SM CLR M10/M12 A3038 RMK AO2
K20V 130354Z AUTO 00000KT 10SM CLR M10/M12 A3039 RMK AO2
K20V 130330Z AUTO 00000KT 10SM CLR M08/M11 A3040 RMK AO2
K20V 130312Z AUTO 00000KT 10SM CLR M08/M11 A3040 RMK AO2
K20V 130254Z AUTO 00000KT 10SM CLR M07/M10 A3040 RMK AO2
K20V 130248Z AUTO 00000KT 10SM CLR M07/M10 A3040 RMK AO2
K20V 130230Z AUTO 00000KT 10SM CLR M08/M11 A3041 RMK AO2
K20V 130212Z AUTO 00000KT 10SM CLR M07/M10 A3041 RMK AO2
K20V 130154Z AUTO 00000KT 10SM CLR M06/M09 A3041 RMK AO2
K20V 130148Z AUTO 00000KT 10SM CLR M06/M10 A3041 RMK AO2
K20V 130130Z AUTO 00000KT 10SM CLR M06/M10 A3041 RMK AO2
K20V 130112Z AUTO 00000KT 10SM CLR M05/M08 A3041 RMK AO2
K20V 130054Z AUTO 00000KT 10SM CLR M05/M08 A3041 RMK AO2
K20V 130030Z AUTO 00000KT 10SM CLR M03/M08 A3041 RMK AO2
K20V 130012Z AUTO 00000KT 10SM CLR M02/M08 A3041 RMK AO2
K20V 122354Z AUTO 00000KT 10SM CLR 00/M07 A3042 RMK AO2
K20V 122330Z AUTO 00000KT 10SM CLR 01/M07 A3042 RMK AO2
K20V 122312Z AUTO 00000KT 10SM CLR 02/M07 A3043 RMK AO2
K20V 122254Z AUTO 00000KT 10SM CLR 03/M07 A3044 RMK AO2
K20V 122230Z AUTO 00000KT 10SM CLR 03/M07 A3044 RMK AO2